Terminal Aerodrome Forecast
Issued by NWS

Home | Current Version | Previous Version | Text Only | Print | Product List | Glossary On
Versions: 1 2 3 4 5 6 7 8 9 10 11 12 13 14 15 16 17 18 19 20
702
FTUS43 KGRB 140520
TAFMTW
TAF
KMTW 140520Z 1406/1506 20004KT P6SM SCT100 BKN200
     FM141500 19007KT P6SM SCT050 BKN100 PROB30 1421/1423 -SHRA
      BKN050
     FM142300 12006KT P6SM -SHRA SCT035 OVC050
      TEMPO 1423/1503 5SM -TSRA BR BKN025CB
     FM150300 11003KT 5SM -SHRA BR SCT020 BKN035
      TEMPO 1503/1506 3SM -SHRA BR BKN020=

USA.gov is the U.S. government's official web portal to all federal, state and local government web resources and services.